BAW2424 EGCC-EGPH
Flight info
| Callsign | BAW2424 |
|---|---|
| Flight time | 0h 37m |
| Altitude | 24000 |
| Route | POL5R POL N601 INPIP INPIP1E |
| Aircraft | A320/M-SDE3FGHIRWY/LB1 |
Departure
| Time | 2026-04-25 18:11 |
|---|---|
| Airport | Manchester Airport (EGCC) |
Arrival
| Time | 2026-04-25 18:48 |
|---|---|
| Airport | Edinburgh Airport (EGPH) |
| Time | Latitude | Longitude | Altitude | Speed | Heading |
|---|---|---|---|---|---|
| 2026-04-25 17:47 | 53.35881 | -2.27535 | 220 ft | 0 kts | 96° |
| 2026-04-25 17:59 | 53.35881 | -2.27547 | 247 ft | 4 kts | 97° |
| 2026-04-25 17:59 | 53.35887 | -2.27591 | 247 ft | 4 kts | 110° |
| 2026-04-25 18:00 | 53.35899 | -2.27629 | 247 ft | 4 kts | 141° |
| 2026-04-25 18:00 | 53.35916 | -2.27641 | 247 ft | 0 kts | 186° |
| 2026-04-25 18:00 | 53.35896 | -2.27644 | 247 ft | 4 kts | 186° |
| 2026-04-25 18:00 | 53.35875 | -2.27648 | 247 ft | 0 kts | 186° |
| 2026-04-25 18:05 | 53.35871 | -2.27649 | 247 ft | 2 kts | 186° |
| 2026-04-25 18:05 | 53.35837 | -2.27655 | 247 ft | 8 kts | 186° |
| 2026-04-25 18:05 | 53.35793 | -2.27662 | 247 ft | 8 kts | 185° |
| 2026-04-25 18:05 | 53.35727 | -2.27642 | 247 ft | 9 kts | 157° |
| 2026-04-25 18:06 | 53.35658 | -2.27575 | 247 ft | 14 kts | 141° |
| 2026-04-25 18:06 | 53.35625 | -2.27452 | 253 ft | 10 kts | 75° |
| 2026-04-25 18:06 | 53.35674 | -2.27340 | 253 ft | 14 kts | 51° |
| 2026-04-25 18:06 | 53.35748 | -2.27191 | 253 ft | 19 kts | 50° |
| 2026-04-25 18:07 | 53.35831 | -2.26996 | 253 ft | 20 kts | 58° |
| 2026-04-25 18:07 | 53.35901 | -2.26831 | 254 ft | 17 kts | 53° |
| 2026-04-25 18:07 | 53.35980 | -2.26657 | 254 ft | 21 kts | 53° |
| 2026-04-25 18:07 | 53.36075 | -2.26458 | 253 ft | 23 kts | 51° |
| 2026-04-25 18:08 | 53.36136 | -2.26334 | 253 ft | 1 kts | 50° |
| 2026-04-25 18:08 | 53.36156 | -2.26294 | 253 ft | 8 kts | 51° |
| 2026-04-25 18:08 | 53.36223 | -2.26188 | 251 ft | 19 kts | 47° |
| 2026-04-25 18:08 | 53.36266 | -2.26036 | 253 ft | 5 kts | 75° |
| 2026-04-25 18:09 | 53.36267 | -2.26031 | 253 ft | 0 kts | 75° |
| 2026-04-25 18:09 | 53.36270 | -2.26009 | 254 ft | 4 kts | 75° |
| 2026-04-25 18:09 | 53.36282 | -2.25918 | 256 ft | 10 kts | 79° |
| 2026-04-25 18:09 | 53.36283 | -2.25879 | 258 ft | 10 kts | 94° |
| 2026-04-25 18:10 | 53.36167 | -2.25862 | 259 ft | 19 kts | 227° |
| 2026-04-25 18:10 | 53.36124 | -2.25948 | 259 ft | 24 kts | 231° |
| 2026-04-25 18:10 | 53.35854 | -2.26505 | 265 ft | 95 kts | 231° |
| 2026-04-25 18:10 | 53.35319 | -2.27613 | 288 ft | 144 kts | 232° |
| 2026-04-25 18:11 | 53.34633 | -2.28981 | 704 ft | 157 kts | 233° |
| 2026-04-25 18:11 | 53.33972 | -2.30428 | 1362 ft | 156 kts | 233° |
| 2026-04-25 18:11 | 53.33302 | -2.31920 | 1780 ft | 172 kts | 233° |
| 2026-04-25 18:11 | 53.32560 | -2.33643 | 2103 ft | 194 kts | 241° |
| 2026-04-25 18:12 | 53.32172 | -2.35921 | 2416 ft | 216 kts | 269° |
| 2026-04-25 18:12 | 53.32498 | -2.38474 | 2801 ft | 238 kts | 298° |
| 2026-04-25 18:12 | 53.33182 | -2.39981 | 3110 ft | 254 kts | 320° |
| 2026-04-25 18:12 | 53.34782 | -2.41311 | 3905 ft | 263 kts | 345° |
| 2026-04-25 18:13 | 53.36558 | -2.42164 | 4916 ft | 267 kts | 345° |
| 2026-04-25 18:13 | 53.38353 | -2.43052 | 5896 ft | 271 kts | 344° |
| 2026-04-25 18:13 | 53.40178 | -2.43966 | 6867 ft | 274 kts | 343° |
| 2026-04-25 18:14 | 53.43865 | -2.45856 | 8705 ft | 280 kts | 342° |
| 2026-04-25 18:14 | 53.45790 | -2.46440 | 9589 ft | 286 kts | 1° |
| 2026-04-25 18:14 | 53.47742 | -2.45686 | 10056 ft | 292 kts | 26° |
| 2026-04-25 18:14 | 53.49401 | -2.43720 | 10216 ft | 294 kts | 38° |
| 2026-04-25 18:15 | 53.51053 | -2.41499 | 10520 ft | 316 kts | 38° |
| 2026-04-25 18:15 | 53.52829 | -2.39106 | 10889 ft | 335 kts | 38° |
| 2026-04-25 18:15 | 53.54672 | -2.36633 | 11573 ft | 342 kts | 38° |
| 2026-04-25 18:15 | 53.56525 | -2.34159 | 12307 ft | 347 kts | 37° |
| 2026-04-25 18:16 | 53.58428 | -2.31623 | 13071 ft | 351 kts | 37° |
| 2026-04-25 18:16 | 53.60356 | -2.29055 | 13817 ft | 356 kts | 37° |
| 2026-04-25 18:16 | 53.64289 | -2.23820 | 15017 ft | 364 kts | 37° |
| 2026-04-25 18:17 | 53.66275 | -2.21173 | 15174 ft | 365 kts | 37° |
| 2026-04-25 18:17 | 53.68269 | -2.18510 | 15241 ft | 366 kts | 37° |
| 2026-04-25 18:17 | 53.70325 | -2.15925 | 15898 ft | 369 kts | 30° |
| 2026-04-25 18:17 | 53.72639 | -2.14073 | 16584 ft | 370 kts | 17° |
| 2026-04-25 18:18 | 53.75154 | -2.13159 | 17250 ft | 371 kts | 3° |
| 2026-04-25 18:18 | 53.77737 | -2.13238 | 17901 ft | 372 kts | 350° |
| 2026-04-25 18:18 | 53.80242 | -2.14311 | 18542 ft | 374 kts | 337° |
| 2026-04-25 18:18 | 53.82665 | -2.15977 | 19141 ft | 377 kts | 336° |
| 2026-04-25 18:19 | 53.85099 | -2.17652 | 19767 ft | 379 kts | 336° |
| 2026-04-25 18:19 | 53.87559 | -2.19331 | 20429 ft | 382 kts | 336° |
| 2026-04-25 18:19 | 53.90005 | -2.20995 | 21067 ft | 384 kts | 336° |
| 2026-04-25 18:19 | 53.92495 | -2.22693 | 21698 ft | 387 kts | 336° |
| 2026-04-25 18:20 | 53.94998 | -2.24408 | 22303 ft | 390 kts | 336° |
| 2026-04-25 18:20 | 53.97519 | -2.26141 | 22913 ft | 392 kts | 336° |
| 2026-04-25 18:20 | 54.00059 | -2.27892 | 23495 ft | 395 kts | 335° |
| 2026-04-25 18:20 | 54.02620 | -2.29659 | 24008 ft | 399 kts | 335° |
| 2026-04-25 18:21 | 54.05199 | -2.31437 | 24183 ft | 400 kts | 335° |
| 2026-04-25 18:21 | 54.07783 | -2.33221 | 24221 ft | 400 kts | 335° |
| 2026-04-25 18:21 | 54.10356 | -2.35005 | 24224 ft | 399 kts | 335° |
| 2026-04-25 18:21 | 54.12928 | -2.36792 | 24225 ft | 399 kts | 335° |
| 2026-04-25 18:22 | 54.15502 | -2.38583 | 24230 ft | 399 kts | 335° |
| 2026-04-25 18:22 | 54.17206 | -2.39770 | 24228 ft | 399 kts | 335° |
| 2026-04-25 18:22 | 54.20619 | -2.42150 | 24228 ft | 399 kts | 335° |
| 2026-04-25 18:22 | 54.23191 | -2.43940 | 24236 ft | 400 kts | 335° |
| 2026-04-25 18:23 | 54.25804 | -2.45759 | 24231 ft | 401 kts | 336° |
| 2026-04-25 18:23 | 54.28360 | -2.47540 | 24231 ft | 402 kts | 336° |
| 2026-04-25 18:23 | 54.30904 | -2.49313 | 24228 ft | 387 kts | 335° |
| 2026-04-25 18:23 | 54.33346 | -2.51017 | 24232 ft | 371 kts | 335° |
| 2026-04-25 18:24 | 54.35690 | -2.52655 | 24232 ft | 356 kts | 335° |
| 2026-04-25 18:24 | 54.37966 | -2.54248 | 24236 ft | 351 kts | 335° |
| 2026-04-25 18:24 | 54.40259 | -2.55860 | 24238 ft | 366 kts | 335° |
| 2026-04-25 18:24 | 54.42683 | -2.57574 | 24224 ft | 386 kts | 335° |
| 2026-04-25 18:25 | 54.45207 | -2.59359 | 24225 ft | 397 kts | 335° |
| 2026-04-25 18:25 | 54.47773 | -2.61169 | 24228 ft | 401 kts | 335° |
| 2026-04-25 18:25 | 54.50363 | -2.62997 | 24223 ft | 403 kts | 335° |
| 2026-04-25 18:25 | 54.52962 | -2.64829 | 24226 ft | 404 kts | 335° |
| 2026-04-25 18:26 | 54.55559 | -2.66663 | 24224 ft | 404 kts | 335° |
| 2026-04-25 18:26 | 54.58127 | -2.68475 | 24165 ft | 393 kts | 335° |
| 2026-04-25 18:26 | 54.60630 | -2.70246 | 23902 ft | 385 kts | 335° |
| 2026-04-25 18:26 | 54.63097 | -2.72002 | 23232 ft | 386 kts | 335° |
| 2026-04-25 18:27 | 54.65585 | -2.73783 | 22538 ft | 388 kts | 335° |
| 2026-04-25 18:27 | 54.68075 | -2.75566 | 21972 ft | 386 kts | 335° |
| 2026-04-25 18:27 | 54.70551 | -2.77338 | 21439 ft | 384 kts | 335° |
| 2026-04-25 18:27 | 54.73012 | -2.79103 | 20920 ft | 381 kts | 335° |
| 2026-04-25 18:28 | 54.75459 | -2.80857 | 20401 ft | 379 kts | 335° |
| 2026-04-25 18:28 | 54.77898 | -2.82604 | 20203 ft | 380 kts | 335° |
| 2026-04-25 18:28 | 54.80343 | -2.84354 | 20233 ft | 381 kts | 335° |
| 2026-04-25 18:29 | 54.85217 | -2.87844 | 20231 ft | 382 kts | 335° |
| 2026-04-25 18:29 | 54.87673 | -2.89607 | 20231 ft | 382 kts | 335° |
| 2026-04-25 18:30 | 54.94965 | -2.94869 | 19169 ft | 374 kts | 335° |
| 2026-04-25 18:30 | 54.97366 | -2.96614 | 18658 ft | 372 kts | 335° |
| 2026-04-25 18:30 | 54.99745 | -2.98348 | 18088 ft | 370 kts | 335° |
| 2026-04-25 18:30 | 55.02111 | -3.00074 | 17522 ft | 367 kts | 335° |
| 2026-04-25 18:31 | 55.04462 | -3.01787 | 16973 ft | 364 kts | 335° |
| 2026-04-25 18:31 | 55.06787 | -3.03479 | 16438 ft | 361 kts | 335° |
| 2026-04-25 18:31 | 55.09101 | -3.05166 | 15916 ft | 359 kts | 335° |
| 2026-04-25 18:31 | 55.11393 | -3.06838 | 15410 ft | 356 kts | 335° |
| 2026-04-25 18:32 | 55.13673 | -3.08504 | 14890 ft | 353 kts | 335° |
| 2026-04-25 18:32 | 55.15930 | -3.10159 | 14380 ft | 351 kts | 335° |
| 2026-04-25 18:32 | 55.18145 | -3.11786 | 13808 ft | 346 kts | 335° |
| 2026-04-25 18:32 | 55.20359 | -3.13407 | 13137 ft | 334 kts | 335° |
| 2026-04-25 18:33 | 55.22475 | -3.14952 | 12401 ft | 327 kts | 335° |
| 2026-04-25 18:33 | 55.24552 | -3.16475 | 11891 ft | 315 kts | 336° |
| 2026-04-25 18:33 | 55.26482 | -3.17892 | 11644 ft | 297 kts | 335° |
| 2026-04-25 18:33 | 55.28371 | -3.19230 | 11123 ft | 290 kts | 340° |
| 2026-04-25 18:34 | 55.30359 | -3.20003 | 10552 ft | 289 kts | 352° |
| 2026-04-25 18:34 | 55.32360 | -3.20039 | 9961 ft | 287 kts | 3° |
| 2026-04-25 18:34 | 55.34345 | -3.19719 | 9342 ft | 285 kts | 3° |
| 2026-04-25 18:34 | 55.36308 | -3.19413 | 8740 ft | 283 kts | 2° |
| 2026-04-25 18:35 | 55.38258 | -3.19111 | 8146 ft | 280 kts | 3° |
| 2026-04-25 18:35 | 55.40190 | -3.18811 | 7566 ft | 277 kts | 4° |
| 2026-04-25 18:35 | 55.42073 | -3.18518 | 7289 ft | 275 kts | 3° |
| 2026-04-25 18:35 | 55.44008 | -3.18218 | 7247 ft | 277 kts | 3° |
| 2026-04-25 18:36 | 55.45910 | -3.17920 | 7249 ft | 279 kts | 4° |
| 2026-04-25 18:36 | 55.47837 | -3.17618 | 7250 ft | 277 kts | 4° |
| 2026-04-25 18:36 | 55.49756 | -3.17317 | 7251 ft | 275 kts | 3° |
| 2026-04-25 18:36 | 55.51654 | -3.17016 | 7248 ft | 273 kts | 3° |
| 2026-04-25 18:37 | 55.53550 | -3.16717 | 7252 ft | 273 kts | 3° |
| 2026-04-25 18:37 | 55.55445 | -3.16421 | 7253 ft | 273 kts | 2° |
| 2026-04-25 18:37 | 55.57335 | -3.16127 | 7252 ft | 273 kts | 2° |
| 2026-04-25 18:37 | 55.59231 | -3.15832 | 7254 ft | 274 kts | 3° |
| 2026-04-25 18:38 | 55.61120 | -3.15433 | 7251 ft | 275 kts | 12° |
| 2026-04-25 18:38 | 55.62906 | -3.14188 | 7255 ft | 276 kts | 18° |
| 2026-04-25 18:38 | 55.64774 | -3.13681 | 7260 ft | 271 kts | 352° |
| 2026-04-25 18:38 | 55.66502 | -3.14737 | 7261 ft | 267 kts | 325° |
| 2026-04-25 18:39 | 55.67945 | -3.16790 | 7262 ft | 265 kts | 317° |
| 2026-04-25 18:39 | 55.69322 | -3.18979 | 7263 ft | 267 kts | 316° |
| 2026-04-25 18:39 | 55.70695 | -3.21185 | 7264 ft | 266 kts | 317° |
| 2026-04-25 18:39 | 55.72069 | -3.23398 | 7265 ft | 267 kts | 316° |
| 2026-04-25 18:40 | 55.73440 | -3.25603 | 7265 ft | 266 kts | 317° |
| 2026-04-25 18:40 | 55.74799 | -3.27846 | 7269 ft | 266 kts | 311° |
| 2026-04-25 18:40 | 55.75701 | -3.30612 | 7104 ft | 263 kts | 286° |
| 2026-04-25 18:40 | 55.76095 | -3.33822 | 6777 ft | 263 kts | 280° |
| 2026-04-25 18:41 | 55.76394 | -3.36981 | 6466 ft | 261 kts | 279° |
| 2026-04-25 18:41 | 55.76694 | -3.40156 | 6108 ft | 261 kts | 279° |
| 2026-04-25 18:41 | 55.77023 | -3.43292 | 5860 ft | 257 kts | 279° |
| 2026-04-25 18:41 | 55.77360 | -3.46421 | 5482 ft | 259 kts | 279° |
| 2026-04-25 18:42 | 55.77699 | -3.49562 | 5124 ft | 259 kts | 279° |
| 2026-04-25 18:42 | 55.77815 | -3.50624 | 5023 ft | 258 kts | 279° |
| 2026-04-25 18:42 | 55.78404 | -3.55774 | 4495 ft | 256 kts | 280° |
| 2026-04-25 18:42 | 55.78746 | -3.58888 | 4127 ft | 257 kts | 279° |
| 2026-04-25 18:43 | 55.79085 | -3.61980 | 3993 ft | 255 kts | 279° |
| 2026-04-25 18:43 | 55.79568 | -3.65021 | 3994 ft | 258 kts | 296° |
| 2026-04-25 18:43 | 55.80749 | -3.67412 | 3889 ft | 261 kts | 324° |
| 2026-04-25 18:43 | 55.82444 | -3.68477 | 3577 ft | 263 kts | 357° |
| 2026-04-25 18:44 | 55.84184 | -3.67701 | 3349 ft | 258 kts | 32° |
| 2026-04-25 18:44 | 55.85382 | -3.65476 | 3214 ft | 241 kts | 59° |
| 2026-04-25 18:44 | 55.86224 | -3.63005 | 3047 ft | 228 kts | 60° |
| 2026-04-25 18:44 | 55.87007 | -3.60696 | 2952 ft | 208 kts | 60° |
| 2026-04-25 18:45 | 55.87732 | -3.58574 | 2743 ft | 194 kts | 60° |
| 2026-04-25 18:45 | 55.88418 | -3.56570 | 2503 ft | 185 kts | 61° |
| 2026-04-25 18:45 | 55.89069 | -3.54668 | 2282 ft | 174 kts | 61° |
| 2026-04-25 18:45 | 55.89672 | -3.52905 | 2072 ft | 158 kts | 62° |
| 2026-04-25 18:46 | 55.90236 | -3.51252 | 1826 ft | 153 kts | 62° |
| 2026-04-25 18:46 | 55.90776 | -3.49665 | 1609 ft | 150 kts | 62° |
| 2026-04-25 18:46 | 55.91316 | -3.48082 | 1407 ft | 149 kts | 60° |
| 2026-04-25 18:46 | 55.91872 | -3.46449 | 1184 ft | 150 kts | 60° |
| 2026-04-25 18:47 | 55.92389 | -3.44932 | 969 ft | 139 kts | 60° |
| 2026-04-25 18:47 | 55.92873 | -3.43500 | 767 ft | 133 kts | 59° |
| 2026-04-25 18:47 | 55.93346 | -3.42119 | 608 ft | 128 kts | 58° |
| 2026-04-25 18:47 | 55.93818 | -3.40762 | 423 ft | 129 kts | 59° |
| 2026-04-25 18:48 | 55.94275 | -3.39384 | 245 ft | 129 kts | 60° |
| 2026-04-25 18:48 | 55.94735 | -3.38026 | 118 ft | 122 kts | 59° |
| 2026-04-25 18:48 | 55.95100 | -3.36955 | 114 ft | 76 kts | 58° |
| 2026-04-25 18:48 | 55.95247 | -3.36509 | 112 ft | 18 kts | 68° |
| 2026-04-25 18:49 | 55.95254 | -3.36440 | 111 ft | 0 kts | 77° |
| 2026-04-25 18:49 | 55.95260 | -3.36411 | 110 ft | 20 kts | 69° |
| 2026-04-25 18:49 | 55.95424 | -3.35961 | 110 ft | 44 kts | 57° |
| 2026-04-25 18:49 | 55.95532 | -3.35583 | 111 ft | 25 kts | 81° |
| 2026-04-25 18:50 | 55.95449 | -3.35425 | 116 ft | 19 kts | 186° |
| 2026-04-25 18:50 | 55.95393 | -3.35549 | 115 ft | 11 kts | 244° |
| 2026-04-25 18:50 | 55.95356 | -3.35644 | 114 ft | 0 kts | 233° |
| 2026-04-25 18:50 | 55.95355 | -3.35648 | 114 ft | 0 kts | 233° |
| 2026-04-25 18:51 | 55.95338 | -3.35687 | 115 ft | 0 kts | 233° |
| 2026-04-25 18:52 | 55.95327 | -3.35714 | 114 ft | 6 kts | 234° |
| 2026-04-25 18:52 | 55.95290 | -3.35817 | 114 ft | 14 kts | 239° |
| 2026-04-25 18:53 | 55.95228 | -3.36001 | 111 ft | 21 kts | 239° |
| 2026-04-25 18:53 | 55.95162 | -3.36202 | 115 ft | 12 kts | 239° |
| 2026-04-25 18:53 | 55.95109 | -3.36354 | 112 ft | 15 kts | 229° |
| 2026-04-25 18:53 | 55.95048 | -3.36384 | 114 ft | 7 kts | 176° |
| 2026-04-25 18:54 | 55.94969 | -3.36389 | 113 ft | 7 kts | 147° |
| 2026-04-25 18:54 | 55.94941 | -3.36359 | 114 ft | 0 kts | 148° |